createdAt,value
2022-08-01T00:00:10.613Z,100612.34
2022-08-01T00:02:39.061Z,100619.75
2022-08-01T00:05:07.246Z,100615.75
2022-08-01T00:07:34.850Z,100611.28
2022-08-01T00:10:02.321Z,100613.13
2022-08-01T00:12:29.124Z,100613.22
2022-08-01T00:14:55.796Z,100602.31
2022-08-01T00:17:22.450Z,100603.13
2022-08-01T00:19:49.250Z,100596.97
2022-08-01T00:22:16.163Z,100601.41
2022-08-01T00:24:42.786Z,100604.03
2022-08-01T00:27:09.464Z,100598.09
2022-08-01T00:30:04.685Z,100597.94
2022-08-01T00:32:22.879Z,100596.44
2022-08-01T00:34:49.823Z,100592.44
2022-08-01T00:37:18.268Z,100586.00
2022-08-01T00:39:44.930Z,100585.88
2022-08-01T00:42:12.916Z,100591.84
2022-08-01T00:44:40.289Z,100590.53
2022-08-01T00:47:07.139Z,100580.47
2022-08-01T00:49:34.225Z,100581.88
2022-08-01T00:52:02.218Z,100583.69
2022-08-01T00:54:29.403Z,100581.03
2022-08-01T00:56:56.790Z,100577.13
2022-08-01T00:59:25.843Z,100571.16
2022-08-01T01:01:52.781Z,100570.47
2022-08-01T01:04:20.587Z,100571.31
2022-08-01T01:07:09.053Z,100565.88
2022-08-01T01:09:59.863Z,100564.69
2022-08-01T01:12:38.237Z,100565.66
2022-08-01T01:15:19.061Z,100557.91
2022-08-01T01:18:04.092Z,100556.84
2022-08-01T01:20:36.927Z,100553.53
2022-08-01T01:23:21.507Z,100559.03
2022-08-01T01:26:00.270Z,100564.31
2022-08-01T01:28:42.795Z,100561.00
2022-08-01T01:31:12.857Z,100559.63
2022-08-01T01:33:47.389Z,100552.03
2022-08-01T01:36:15.585Z,100548.72
2022-08-01T01:38:45.470Z,100551.34
2022-08-01T01:41:14.049Z,100548.88
2022-08-01T01:43:41.554Z,100545.94
2022-08-01T01:46:10.747Z,100545.94
2022-08-01T01:48:39.790Z,100547.06
2022-08-01T01:51:06.845Z,100546.91
2022-08-01T01:53:35.912Z,100542.06
2022-08-01T01:56:03.808Z,100536.66
2022-08-01T01:58:33.975Z,100541.78
2022-08-01T02:01:03.556Z,100543.59
2022-08-01T02:03:32.152Z,100540.81
2022-08-01T02:06:00.256Z,100545.78
2022-08-01T02:08:30.551Z,100544.50
2022-08-01T02:11:19.319Z,100540.56
2022-08-01T02:14:06.858Z,100532.47
2022-08-01T02:16:37.211Z,100531.00
2022-08-01T02:19:04.594Z,100531.00
2022-08-01T02:21:45.250Z,100529.03
2022-08-01T02:24:21.519Z,100531.66
2022-08-01T02:27:02.499Z,100524.56
2022-08-01T02:29:36.873Z,100523.22
2022-08-01T02:32:06.179Z,100523.38
2022-08-01T02:34:36.734Z,100525.19
2022-08-01T02:37:05.504Z,100520.88
2022-08-01T02:39:33.001Z,100530.00
2022-08-01T02:42:04.649Z,100523.75
2022-08-01T02:44:36.314Z,100522.78
2022-08-01T02:47:04.535Z,100523.91
2022-08-01T02:49:37.719Z,100520.88
2022-08-01T02:52:10.909Z,100524.19
2022-08-01T02:54:39.994Z,100530.16
2022-08-01T02:57:09.100Z,100527.81
2022-08-01T02:59:42.218Z,100520.38
2022-08-01T03:02:10.370Z,100518.56
2022-08-01T03:04:40.574Z,100528.97
2022-08-01T03:07:09.371Z,100531.91
2022-08-01T03:09:44.368Z,100534.53
2022-08-01T03:12:15.315Z,100532.50
2022-08-01T03:14:44.012Z,100536.50
2022-08-01T03:17:12.505Z,100531.41
2022-08-01T03:19:40.637Z,100532.88
2022-08-01T03:22:13.591Z,100529.25
2022-08-01T03:24:42.567Z,100528.59
2022-08-01T03:27:10.108Z,100536.66
2022-08-01T03:29:40.286Z,100533.56
2022-08-01T03:32:08.122Z,100531.81
2022-08-01T03:34:35.006Z,100528.06
2022-08-01T03:37:16.118Z,100529.41
2022-08-01T03:39:52.865Z,100526.78
2022-08-01T03:42:24.531Z,100525.78
2022-08-01T03:44:56.159Z,100524.19
2022-08-01T03:47:27.193Z,100523.22
2022-08-01T03:49:55.972Z,100523.06
2022-08-01T03:52:24.837Z,100520.44
2022-08-01T03:54:56.478Z,100513.63
2022-08-01T03:57:36.050Z,100522.97
2022-08-01T04:00:09.810Z,100519.53
2022-08-01T04:02:39.961Z,100535.97
2022-08-01T04:05:06.952Z,100532.50
2022-08-01T04:07:37.022Z,100534.16
2022-08-01T04:10:04.992Z,100539.59
2022-08-01T04:12:33.616Z,100541.41
2022-08-01T04:15:00.444Z,100533.78
2022-08-01T04:17:27.062Z,100532.06
2022-08-01T04:19:53.731Z,100545.78
2022-08-01T04:22:20.650Z,100539.22
2022-08-01T04:24:54.519Z,100541.03
2022-08-01T04:27:50.008Z,100539.81
2022-08-01T04:30:21.086Z,100543.44
2022-08-01T04:32:48.904Z,100539.13
2022-08-01T04:35:22.985Z,100542.84
2022-08-01T04:38:05.753Z,100530.22
2022-08-01T04:40:33.663Z,100534.97
2022-08-01T04:43:01.282Z,100534.19
2022-08-01T04:45:28.738Z,100541.97
2022-08-01T04:47:56.342Z,100540.72
2022-08-01T04:50:23.688Z,100535.13
2022-08-01T04:52:50.358Z,100527.06
2022-08-01T04:55:18.168Z,100531.56
2022-08-01T04:57:47.445Z,100521.78
2022-08-01T05:00:15.090Z,100526.31
2022-08-01T05:02:41.687Z,100532.66
2022-08-01T05:05:08.914Z,100531.81
2022-08-01T05:07:45.114Z,100537.84
2022-08-01T05:10:12.803Z,100540.19
2022-08-01T05:12:39.527Z,100544.72
2022-08-01T05:15:10.575Z,100540.81
2022-08-01T05:17:43.236Z,100545.97
2022-08-01T05:20:11.127Z,100540.56
2022-08-01T05:22:38.048Z,100542.16
2022-08-01T05:25:12.747Z,100540.66
2022-08-01T05:27:45.387Z,100541.00
2022-08-01T05:30:12.342Z,100553.75
2022-08-01T05:32:39.305Z,100547.66
2022-08-01T05:35:06.717Z,100542.25
2022-08-01T05:37:33.366Z,100546.94
2022-08-01T05:40:00.002Z,100560.03
2022-08-01T05:42:27.212Z,100556.41
2022-08-01T05:44:53.916Z,100559.47
2022-08-01T05:47:20.670Z,100564.22
2022-08-01T05:49:50.927Z,100560.09
2022-08-01T05:52:20.090Z,100563.19
2022-08-01T05:54:46.722Z,100567.75
2022-08-01T05:57:13.532Z,100562.28
2022-08-01T05:59:42.154Z,100564.03
2022-08-01T06:02:09.316Z,100567.69
2022-08-01T06:04:36.521Z,100571.00
2022-08-01T06:07:03.242Z,100568.91
2022-08-01T06:09:31.641Z,100574.16
2022-08-01T06:11:58.682Z,100571.59
2022-08-01T06:14:25.512Z,100571.91
2022-08-01T06:16:52.255Z,100571.06
2022-08-01T06:19:19.107Z,100575.75
2022-08-01T06:21:45.709Z,100571.47
2022-08-01T06:24:12.842Z,100565.28
2022-08-01T06:26:39.538Z,100565.66
2022-08-01T06:29:06.196Z,100571.25
2022-08-01T06:31:33.898Z,100575.75
2022-08-01T06:34:00.837Z,100576.44
2022-08-01T06:36:27.770Z,100579.56
2022-08-01T06:38:54.400Z,100585.44
2022-08-01T06:41:21.062Z,100572.97
2022-08-01T06:43:47.824Z,100568.91
2022-08-01T06:46:17.191Z,100575.34
2022-08-01T06:48:43.912Z,100581.56
2022-08-01T06:51:10.642Z,100576.91
2022-08-01T06:53:38.497Z,100580.03
2022-08-01T06:56:06.593Z,100583.38
2022-08-01T06:58:35.313Z,100579.81
2022-08-01T07:01:05.086Z,100572.59
2022-08-01T07:03:52.796Z,100570.88
2022-08-01T07:06:19.145Z,100567.59
2022-08-01T07:08:45.880Z,100569.50
2022-08-01T07:11:12.560Z,100572.06
2022-08-01T07:13:43.966Z,100569.28
2022-08-01T07:16:13.465Z,100562.09
2022-08-01T07:18:40.251Z,100571.69
2022-08-01T07:21:06.957Z,100569.25
2022-08-01T07:23:46.128Z,100571.47
2022-08-01T07:26:14.165Z,100566.19
2022-08-01T07:28:43.918Z,100574.13
2022-08-01T07:31:10.925Z,100570.03
2022-08-01T07:33:48.441Z,100565.41
2022-08-01T07:36:20.370Z,100569.00
2022-08-01T07:38:47.587Z,100573.31
2022-08-01T07:41:14.813Z,100568.00
2022-08-01T07:43:47.270Z,100575.22
2022-08-01T07:46:19.870Z,100578.00
2022-08-01T07:48:46.596Z,100568.09
2022-08-01T07:51:13.390Z,100563.31
2022-08-01T07:53:40.124Z,100569.09
2022-08-01T07:56:07.284Z,100578.28
2022-08-01T07:58:34.477Z,100572.88
2022-08-01T08:01:01.126Z,100576.41
2022-08-01T08:03:27.851Z,100579.72
2022-08-01T08:05:59.564Z,100578.78
2022-08-01T08:08:30.353Z,100578.66
2022-08-01T08:10:57.044Z,100586.47
2022-08-01T08:13:23.684Z,100578.56
2022-08-01T08:15:50.413Z,100584.22
2022-08-01T08:18:20.159Z,100588.38
2022-08-01T08:20:46.843Z,100586.72
2022-08-01T08:23:42.177Z,100591.84
2022-08-01T08:26:11.648Z,100592.66
2022-08-01T08:28:38.317Z,100598.53
2022-08-01T08:31:07.235Z,100594.66
2022-08-01T08:33:33.871Z,100586.56
2022-08-01T08:36:02.313Z,100590.78
2022-08-01T08:38:30.126Z,100589.00
2022-08-01T08:40:58.239Z,100596.91
2022-08-01T08:43:27.054Z,100586.66
2022-08-01T08:45:58.105Z,100597.50
2022-08-01T08:48:27.844Z,100595.53
2022-08-01T08:50:59.381Z,100596.00
2022-08-01T08:53:27.292Z,100594.97
2022-08-01T08:56:03.521Z,100601.06
2022-08-01T08:58:35.201Z,100603.25
2022-08-01T09:01:02.202Z,100598.53
2022-08-01T09:03:29.019Z,100598.94
2022-08-01T09:05:55.760Z,100606.84
2022-08-01T09:08:24.044Z,100610.59
2022-08-01T09:10:53.352Z,100613.59
2022-08-01T09:13:19.965Z,100628.28
2022-08-01T09:16:06.172Z,100625.41
2022-08-01T09:18:35.668Z,100636.47
2022-08-01T09:21:24.052Z,100627.22
2022-08-01T09:23:55.007Z,100635.41
2022-08-01T09:26:31.221Z,100639.56
2022-08-01T09:28:58.429Z,100640.88
2022-08-01T09:31:27.761Z,100646.13
2022-08-01T09:34:05.915Z,100642.22
2022-08-01T09:36:55.357Z,100642.38
2022-08-01T09:39:24.963Z,100646.56
2022-08-01T09:41:52.768Z,100645.78
2022-08-01T09:44:42.350Z,100651.94
2022-08-01T09:47:10.744Z,100645.25
2022-08-01T09:49:50.432Z,100643.25
2022-08-01T09:52:21.520Z,100636.03
2022-08-01T09:54:58.418Z,100647.53
2022-08-01T09:57:25.455Z,100651.81
2022-08-01T09:59:58.751Z,100655.56
2022-08-01T10:02:38.375Z,100656.00
2022-08-01T10:05:08.815Z,100651.38
2022-08-01T10:07:44.077Z,100663.00
2022-08-01T10:10:14.467Z,100650.41
2022-08-01T10:12:44.391Z,100665.75
2022-08-01T10:15:16.142Z,100656.28
2022-08-01T10:17:54.321Z,100657.56
2022-08-01T10:20:30.064Z,100666.66
2022-08-01T10:23:06.326Z,100665.13
2022-08-01T10:25:42.874Z,100663.59
2022-08-01T10:28:21.681Z,100670.38
2022-08-01T10:30:52.144Z,100661.56
2022-08-01T10:33:51.865Z,100664.38
2022-08-01T10:36:10.690Z,100666.78
2022-08-01T10:38:38.076Z,100661.19
2022-08-01T10:41:08.537Z,100662.81
2022-08-01T10:43:36.397Z,100661.41
2022-08-01T10:46:04.963Z,100654.53
2022-08-01T10:49:15.454Z,100661.50
2022-08-01T10:51:51.279Z,100663.75
2022-08-01T10:54:19.716Z,100659.53
2022-08-01T10:56:50.524Z,100663.94
2022-08-01T10:59:49.273Z,100678.25
2022-08-01T11:02:10.064Z,100668.41
2022-08-01T11:05:18.033Z,100670.31
2022-08-01T11:07:52.540Z,100677.31
2022-08-01T11:10:45.289Z,100671.19
2022-08-01T11:13:13.483Z,100670.13
2022-08-01T11:15:49.947Z,100685.03
2022-08-01T11:18:32.531Z,100671.47
2022-08-01T11:21:56.431Z,100671.50
2022-08-01T11:23:50.674Z,100670.00
2022-08-01T11:26:18.105Z,100681.91
2022-08-01T11:29:20.662Z,100679.84
2022-08-01T11:31:48.588Z,100682.81
2022-08-01T11:34:15.619Z,100690.31
2022-08-01T11:37:09.782Z,100691.41
2022-08-01T11:39:30.177Z,100693.91
2022-08-01T11:42:22.014Z,100698.78
2022-08-01T11:44:51.179Z,100705.84
2022-08-01T11:47:19.471Z,100704.06
2022-08-01T11:49:51.706Z,100697.81
2022-08-01T11:52:25.970Z,100705.81
2022-08-01T11:55:01.707Z,100719.13
2022-08-01T11:57:36.087Z,100718.63
2022-08-01T12:00:16.579Z,100729.56
2022-08-01T12:02:46.408Z,100738.25
2022-08-01T12:05:15.650Z,100732.81
2022-08-01T12:07:44.602Z,100741.25
2022-08-01T12:10:12.373Z,100731.72
2022-08-01T12:12:49.328Z,100731.09
2022-08-01T12:15:17.030Z,100737.59
2022-08-01T12:17:58.211Z,100741.88
2022-08-01T12:20:30.721Z,100741.34
2022-08-01T12:23:09.756Z,100746.44
2022-08-01T12:25:37.673Z,100750.59
2022-08-01T12:28:06.453Z,100751.13
2022-08-01T12:30:37.509Z,100756.84
2022-08-01T12:33:09.713Z,100751.03
2022-08-01T12:35:44.410Z,100764.06
2022-08-01T12:38:20.380Z,100765.41
2022-08-01T12:40:53.009Z,100747.22
2022-08-01T12:43:28.343Z,100750.03
2022-08-01T12:45:59.316Z,100754.81
2022-08-01T12:48:26.995Z,100762.03
2022-08-01T12:50:54.960Z,100761.06
2022-08-01T12:53:22.668Z,100761.47
2022-08-01T12:55:59.670Z,100758.81
2022-08-01T12:58:35.347Z,100756.88
2022-08-01T13:01:10.652Z,100751.38
2022-08-01T13:03:38.134Z,100758.09
2022-08-01T13:06:16.314Z,100749.84
2022-08-01T13:08:43.596Z,100757.59
2022-08-01T13:11:15.587Z,100759.66
2022-08-01T13:13:48.656Z,100758.38
2022-08-01T13:16:30.376Z,100745.53
2022-08-01T13:19:07.224Z,100739.22
2022-08-01T13:21:54.486Z,100739.56
2022-08-01T13:24:28.698Z,100748.31
2022-08-01T13:27:01.071Z,100732.75
2022-08-01T13:29:33.157Z,100746.53
2022-08-01T13:32:01.233Z,100742.59
2022-08-01T13:34:33.288Z,100732.34
2022-08-01T13:37:02.476Z,100727.06
2022-08-01T13:39:48.367Z,100747.69
2022-08-01T13:42:19.389Z,100743.00
2022-08-01T13:44:46.355Z,100742.41
2022-08-01T13:47:15.818Z,100742.63
2022-08-01T13:49:44.190Z,100731.72
2022-08-01T13:52:11.073Z,100750.72
2022-08-01T13:54:38.140Z,100756.38
2022-08-01T13:57:04.984Z,100747.53
2022-08-01T13:59:31.763Z,100751.41
2022-08-01T14:01:58.459Z,100766.63
2022-08-01T14:04:25.100Z,100763.56
2022-08-01T14:06:51.741Z,100760.38
2022-08-01T14:09:23.862Z,100768.22
2022-08-01T14:11:51.468Z,100764.38
2022-08-01T14:14:18.199Z,100771.38
2022-08-01T14:16:47.733Z,100765.66
2022-08-01T14:19:16.959Z,100771.28
2022-08-01T14:21:43.569Z,100776.91
2022-08-01T14:24:10.702Z,100775.94
2022-08-01T14:26:37.328Z,100777.22
2022-08-01T14:29:04.106Z,100781.53
2022-08-01T14:31:34.129Z,100791.97
2022-08-01T14:34:01.309Z,100792.91
2022-08-01T14:36:32.446Z,100797.00
2022-08-01T14:39:04.856Z,100788.53
2022-08-01T14:41:33.466Z,100783.72
2022-08-01T14:44:00.808Z,100786.81
2022-08-01T14:46:27.608Z,100795.78
2022-08-01T14:48:54.362Z,100776.16
2022-08-01T14:51:20.993Z,100776.97
2022-08-01T14:53:50.779Z,100791.03
2022-08-01T14:56:18.320Z,100779.63
2022-08-01T14:58:45.288Z,100775.31
2022-08-01T15:01:14.898Z,100781.56
2022-08-01T15:03:41.842Z,100787.53
2022-08-01T15:06:10.506Z,100787.97
2022-08-01T15:08:37.202Z,100788.22
2022-08-01T15:11:03.997Z,100790.19
2022-08-01T15:13:30.589Z,100793.50
2022-08-01T15:15:59.784Z,100790.50
2022-08-01T15:18:28.772Z,100784.75
2022-08-01T15:20:56.240Z,100790.16
2022-08-01T15:23:22.954Z,100792.97
2022-08-01T15:25:50.410Z,100791.41
2022-08-01T15:28:17.188Z,100798.59
2022-08-01T15:30:43.916Z,100792.16
2022-08-01T15:33:10.627Z,100801.50
2022-08-01T15:35:37.276Z,100804.69
2022-08-01T15:38:04.054Z,100799.03
2022-08-01T15:40:35.929Z,100792.09
2022-08-01T15:43:03.560Z,100790.38
2022-08-01T15:45:47.060Z,100791.00
2022-08-01T15:48:14.660Z,100799.69
2022-08-01T15:50:41.383Z,100796.41
2022-08-01T15:53:08.136Z,100791.75
2022-08-01T15:55:39.100Z,100815.22
2022-08-01T15:58:07.240Z,100807.59
2022-08-01T16:00:39.577Z,100809.25
2022-08-01T16:03:08.073Z,100804.59
2022-08-01T16:05:41.092Z,100816.41
2022-08-01T16:08:14.123Z,100820.38
2022-08-01T16:10:40.943Z,100832.31
2022-08-01T16:13:08.040Z,100819.13
2022-08-01T16:15:39.139Z,100825.16
2022-08-01T16:18:07.082Z,100821.84
2022-08-01T16:20:34.457Z,100836.94
2022-08-01T16:23:01.598Z,100820.53
2022-08-01T16:25:28.286Z,100826.16
2022-08-01T16:27:55.282Z,100828.97
2022-08-01T16:30:22.124Z,100819.47
2022-08-01T16:32:52.138Z,100833.38
2022-08-01T16:35:24.600Z,100834.25
2022-08-01T16:38:00.648Z,100826.13
2022-08-01T16:40:27.409Z,100818.78
2022-08-01T16:42:59.043Z,100839.91
2022-08-01T16:45:26.229Z,100847.88
2022-08-01T16:47:52.964Z,100835.94
2022-08-01T16:50:28.610Z,100832.59
2022-08-01T16:52:56.029Z,100835.91
2022-08-01T16:55:23.298Z,100828.75
2022-08-01T16:57:53.759Z,100827.84
2022-08-01T17:00:21.289Z,100839.09
2022-08-01T17:02:48.497Z,100831.06
2022-08-01T17:05:15.338Z,100829.88
2022-08-01T17:07:42.205Z,100832.06
2022-08-01T17:10:09.417Z,100837.41
2022-08-01T17:12:36.258Z,100831.31
2022-08-01T17:15:03.556Z,100827.97
2022-08-01T17:17:30.201Z,100833.16
2022-08-01T17:19:56.811Z,100840.31
2022-08-01T17:22:23.456Z,100836.19
2022-08-01T17:24:51.861Z,100837.25
2022-08-01T17:27:22.045Z,100838.91
2022-08-01T17:29:48.751Z,100830.63
2022-08-01T17:32:15.451Z,100839.06
2022-08-01T17:34:42.594Z,100837.56
2022-08-01T17:37:10.394Z,100838.88
2022-08-01T17:39:38.781Z,100850.97
2022-08-01T17:42:06.039Z,100841.34
2022-08-01T17:44:32.666Z,100845.66
2022-08-01T17:46:59.329Z,100849.31
2022-08-01T17:49:52.204Z,100855.31
2022-08-01T17:52:13.212Z,100861.13
2022-08-01T17:54:39.935Z,100858.81
2022-08-01T17:57:08.276Z,100848.84
2022-08-01T17:59:35.544Z,100851.25
2022-08-01T18:02:02.268Z,100856.97
2022-08-01T18:04:33.876Z,100842.16
2022-08-01T18:07:00.974Z,100857.63
2022-08-01T18:09:32.519Z,100856.31
2022-08-01T18:11:59.980Z,100857.97
2022-08-01T18:14:39.913Z,100857.91
2022-08-01T18:17:11.193Z,100851.63
2022-08-01T18:19:39.187Z,100857.22
2022-08-01T18:22:06.183Z,100856.03
2022-08-01T18:24:52.996Z,100855.06
2022-08-01T18:27:19.609Z,100847.53
2022-08-01T18:29:47.389Z,100865.75
2022-08-01T18:32:15.343Z,100853.63
2022-08-01T18:34:42.090Z,100854.41
2022-08-01T18:37:11.427Z,100860.19
2022-08-01T18:39:40.068Z,100863.69
2022-08-01T18:42:07.129Z,100864.19
2022-08-01T18:44:33.790Z,100869.75
2022-08-01T18:47:00.539Z,100874.03
2022-08-01T18:49:27.226Z,100878.84
2022-08-01T18:51:55.404Z,100881.78
2022-08-01T18:54:24.249Z,100883.25
2022-08-01T18:56:51.292Z,100892.16
2022-08-01T18:59:18.147Z,100895.25
2022-08-01T19:01:45.067Z,100899.06
2022-08-01T19:04:13.304Z,100902.94
2022-08-01T19:06:40.608Z,100905.31
2022-08-01T19:09:07.373Z,100912.13
2022-08-01T19:11:34.640Z,100908.94
2022-08-01T19:14:02.257Z,100904.66
2022-08-01T19:16:29.379Z,100912.56
2022-08-01T19:18:56.203Z,100915.06
2022-08-01T19:21:23.360Z,100920.63
2022-08-01T19:24:08.772Z,100918.13
2022-08-01T19:26:36.129Z,100925.91
2022-08-01T19:29:16.443Z,100928.78
2022-08-01T19:31:48.688Z,100926.97
2022-08-01T19:34:18.279Z,100933.63
2022-08-01T19:36:47.609Z,100929.44
2022-08-01T19:39:16.916Z,100935.28
2022-08-01T19:41:46.134Z,100940.38
2022-08-01T19:44:15.031Z,100945.50
2022-08-01T19:46:43.545Z,100944.09
2022-08-01T19:49:17.639Z,100941.47
2022-08-01T19:51:49.496Z,100939.09
2022-08-01T19:54:19.491Z,100942.56
2022-08-01T19:56:47.813Z,100936.59
2022-08-01T19:59:20.217Z,100942.81
2022-08-01T20:01:48.376Z,100943.53
2022-08-01T20:04:16.763Z,100947.38
2022-08-01T20:06:45.408Z,100937.38
2022-08-01T20:09:15.562Z,100939.31
2022-08-01T20:11:48.901Z,100940.53
2022-08-01T20:14:19.160Z,100947.72
2022-08-01T20:16:46.003Z,100949.22
2022-08-01T20:19:13.553Z,100943.25
2022-08-01T20:21:44.045Z,100940.75
2022-08-01T20:24:38.078Z,100940.66
2022-08-01T20:27:08.244Z,100942.22
2022-08-01T20:29:36.519Z,100944.84
2022-08-01T20:32:04.272Z,100958.34
2022-08-01T20:34:37.722Z,100955.53
2022-08-01T20:37:12.891Z,100950.59
2022-08-01T20:39:43.461Z,100944.91
2022-08-01T20:42:11.452Z,100935.88
2022-08-01T20:44:38.909Z,100939.22
2022-08-01T20:47:08.210Z,100944.16
2022-08-01T20:49:36.764Z,100938.72
2022-08-01T20:52:11.772Z,100948.78
2022-08-01T20:54:43.010Z,100945.75
2022-08-01T20:57:30.534Z,100953.16
2022-08-01T21:00:05.812Z,100956.88
2022-08-01T21:03:07.904Z,100953.78
2022-08-01T21:05:42.805Z,100948.53
2022-08-01T21:08:41.113Z,100952.06
2022-08-01T21:11:13.346Z,100953.66
2022-08-01T21:13:48.209Z,100954.16
2022-08-01T21:16:26.447Z,100954.16
2022-08-01T21:19:21.078Z,100957.41
2022-08-01T21:21:54.124Z,100959.59
2022-08-01T21:24:24.520Z,100958.16
2022-08-01T21:26:52.536Z,100963.66
2022-08-01T21:29:22.390Z,100963.16
2022-08-01T21:32:09.672Z,100969.63
2022-08-01T21:34:38.601Z,100956.84
2022-08-01T21:37:09.521Z,100959.03
2022-08-01T21:39:38.048Z,100966.19
2022-08-01T21:42:08.453Z,100972.63
2022-08-01T21:44:39.260Z,100974.44
2022-08-01T21:47:06.657Z,100980.06
2022-08-01T21:49:39.296Z,100983.19
2022-08-01T21:52:18.234Z,100982.84
2022-08-01T21:55:36.544Z,100990.22
2022-08-01T21:58:12.066Z,100997.00
2022-08-01T22:00:44.879Z,100993.94
2022-08-01T22:03:24.971Z,100991.78
2022-08-01T22:05:53.729Z,100992.50
2022-08-01T22:08:38.890Z,100997.25
2022-08-01T22:11:08.328Z,100996.53
2022-08-01T22:13:37.072Z,101002.00
2022-08-01T22:16:05.768Z,101000.56
2022-08-01T22:18:33.697Z,100999.03
2022-08-01T22:21:02.086Z,101006.41
2022-08-01T22:23:28.916Z,101005.78
2022-08-01T22:25:55.864Z,101006.63
2022-08-01T22:28:23.683Z,101004.47
2022-08-01T22:30:51.794Z,101004.19
2022-08-01T22:33:22.019Z,101006.22
2022-08-01T22:35:50.899Z,101009.88
2022-08-01T22:38:19.466Z,101003.91
2022-08-01T22:40:52.590Z,101001.66
2022-08-01T22:43:40.912Z,101004.63
2022-08-01T22:46:21.272Z,101000.56
2022-08-01T22:49:08.881Z,101018.19
2022-08-01T22:51:55.666Z,101014.59
2022-08-01T22:54:35.177Z,101006.63
2022-08-01T22:57:07.339Z,101005.88
2022-08-01T22:59:45.713Z,101009.00
2022-08-01T23:02:16.588Z,101009.81
2022-08-01T23:04:46.392Z,101010.75
2022-08-01T23:07:19.168Z,101008.63
2022-08-01T23:09:54.214Z,101008.75
2022-08-01T23:12:24.521Z,101012.31
2022-08-01T23:14:53.780Z,101015.91
2022-08-01T23:17:26.832Z,101013.50
2022-08-01T23:20:04.739Z,101013.59
2022-08-01T23:22:33.737Z,101016.13
2022-08-01T23:25:06.603Z,101015.06
2022-08-01T23:28:04.019Z,101007.91
2022-08-01T23:30:30.063Z,101011.75
2022-08-01T23:32:57.776Z,101015.19
2022-08-01T23:35:25.562Z,101009.38
2022-08-01T23:37:53.045Z,101007.31
2022-08-01T23:40:20.689Z,101006.59
2022-08-01T23:42:53.351Z,101003.25
2022-08-01T23:45:20.581Z,101006.09
2022-08-01T23:47:47.228Z,101003.34
2022-08-01T23:50:13.870Z,101006.09
2022-08-01T23:52:47.275Z,101002.63
2022-08-01T23:55:16.719Z,101012.78
2022-08-01T23:57:43.494Z,101011.88
